Time;durP1;ratioP1;P1;durP2;ratioP2;P2;SDS_P1;SDS_P2;PMS_P1;PMS_P2;Temp;Humidity;BMP_temperature;BMP_pressure;BME280_temperature;BME280_humidity;BME280_pressure;Samples;Min_cycle;Max_cycle;Signal;HPM_P1;HPM_P2
2022/09/20 00:00:26;;;;;;;5.65;1.33;;;;;;;10.76;72.97;98558.88;4486442;32;20076;-82
2022/09/20 00:02:51;;;;;;;3.28;1.20;;;;;;;10.44;74.77;98568.63;4487961;31;20132;-81
2022/09/20 00:05:17;;;;;;;4.87;1.30;;;;;;;10.78;73.65;98558.78;4487982;31;20126;-81
2022/09/20 00:07:45;;;;;;;3.10;1.05;;;;;;;10.86;73.11;98553.06;4487869;31;20064;-81
2022/09/20 00:10:10;;;;;;;3.08;0.95;;;;;;;11.14;71.87;98554.88;4487984;31;20428;-82
2022/09/20 00:12:36;;;;;;;4.97;1.30;;;;;;;10.83;72.78;98551.44;4487841;32;20090;-82
2022/09/20 00:15:03;;;;;;;3.55;1.10;;;;;;;11.14;71.61;98553.06;4486732;32;20136;-82
2022/09/20 00:17:28;;;;;;;3.35;1.00;;;;;;;11.03;72.08;98555.53;4487785;31;20107;-81
2022/09/20 00:19:53;;;;;;;6.18;1.40;;;;;;;11.10;71.36;98558.63;4487824;31;20486;-81
2022/09/20 00:22:19;;;;;;;5.47;1.25;;;;;;;10.96;72.18;98551.56;4488002;31;20088;-82
2022/09/20 00:24:44;;;;;;;3.83;1.23;;;;;;;11.13;71.23;98564.56;4487754;31;20088;-83
2022/09/20 00:27:10;;;;;;;3.33;1.00;;;;;;;11.23;70.52;98554.31;4487732;32;20099;-83
2022/09/20 00:29:35;;;;;;;4.03;1.25;;;;;;;11.29;70.36;98567.13;4487774;31;20408;-83
2022/09/20 00:32:01;;;;;;;4.40;1.00;;;;;;;10.83;72.41;98556.69;4487890;31;20107;-83
2022/09/20 00:37:10;;;;;;;3.45;1.10;;;;;;;10.99;71.78;98554.88;4487808;32;20149;-83
2022/09/20 00:39:35;;;;;;;3.05;0.90;;;;;;;11.00;71.26;98551.28;4487684;31;20081;-83
2022/09/20 00:42:01;;;;;;;3.45;1.00;;;;;;;11.15;71.08;98554.78;4487718;32;20080;-83
2022/09/20 00:44:48;;;;;;;3.05;1.20;;;;;;;11.35;70.24;98555.34;4486642;32;20111;-83
2022/09/20 00:47:51;;;;;;;5.30;1.23;;;;;;;11.09;70.88;98565.69;4487678;32;20145;-82
2022/09/20 00:50:28;;;;;;;3.20;1.08;;;;;;;11.24;70.16;98569.19;4410491;32;20112;-83
2022/09/20 00:53:03;;;;;;;2.77;0.97;;;;;;;11.32;70.26;98568.72;4423372;32;20167;-83
2022/09/20 00:55:29;;;;;;;2.87;0.80;;;;;;;11.15;70.63;98570.59;4423462;32;20125;-83
2022/09/20 00:57:55;;;;;;;3.97;1.10;;;;;;;11.65;68.78;98568.44;4423260;32;20108;-81
2022/09/20 01:00:20;;;;;;;2.62;1.00;;;;;;;11.42;69.96;98564.59;4423222;32;20125;-80
2022/09/20 01:02:51;;;;;;;3.10;1.08;;;;;;;11.19;70.16;98568.63;4423316;32;20121;-80
2022/09/20 01:05:18;;;;;;;3.08;1.10;;;;;;;11.21;70.17;98562.31;4423191;32;20453;-80
2022/09/20 01:07:45;;;;;;;5.18;1.17;;;;;;;11.15;70.00;98569.75;4410467;32;20457;-80
2022/09/20 01:10:11;;;;;;;;;;;;;;;10.89;71.23;98569.50;4422775;32;20353;-80
2022/09/20 01:12:39;;;;;;;3.08;1.20;;;;;;;10.37;73.17;98567.28;4423135;32;20023;-80
2022/09/20 01:15:06;;;;;;;4.85;1.02;;;;;;;11.07;71.01;98564.06;4410619;32;20156;-79
2022/09/20 01:17:33;;;;;;;4.05;1.08;;;;;;;10.60;72.77;98576.50;4423049;32;20545;-82
2022/09/20 01:20:11;;;;;;;2.80;1.00;;;;;;;10.73;72.53;98569.56;4410256;32;20086;-82
2022/09/20 01:22:48;;;;;;;2.67;1.10;;;;;;;11.12;70.71;98572.56;4423111;32;20110;-82
2022/09/20 01:25:41;;;;;;;3.30;1.08;;;;;;;11.07;70.83;98577.25;4479341;32;20101;-82
2022/09/20 01:28:06;;;;;;;3.12;1.10;;;;;;;11.59;68.84;98580.22;4487392;32;20106;-82
2022/09/20 01:30:40;;;;;;;3.75;1.10;;;;;;;11.69;68.44;98582.28;4487445;31;20116;-82
2022/09/20 01:33:18;;;;;;;5.30;1.30;;;;;;;11.82;67.55;98588.50;4486227;32;20111;-82
2022/09/20 01:35:46;;;;;;;3.30;1.15;;;;;;;11.98;66.98;98593.69;4487568;31;20148;-82
2022/09/20 01:38:38;;;;;;;5.15;1.15;;;;;;;11.72;67.52;98590.00;4486146;32;20406;-82
2022/09/20 01:41:22;;;;;;;5.12;1.35;;;;;;;11.70;67.63;98591.87;4487374;31;20107;-83
2022/09/20 01:44:08;;;;;;;3.53;1.30;;;;;;;11.73;67.34;98600.47;4487141;32;20120;-83
2022/09/20 01:46:35;;;;;;;3.17;1.30;;;;;;;12.10;66.28;98602.62;4487525;31;20099;-83
2022/09/20 01:49:19;;;;;;;4.47;1.27;;;;;;;11.97;66.74;98603.38;4486063;32;20106;-83
2022/09/20 01:52:00;;;;;;;3.83;1.60;;;;;;;12.12;66.16;98598.09;4487220;31;20085;-83
2022/09/20 01:55:15;;;;;;;3.62;1.30;;;;;;;11.59;68.01;98603.12;4487178;32;20096;-83
2022/09/20 01:58:09;;;;;;;5.32;1.30;;;;;;;12.22;65.86;98598.34;4425230;32;20519;-82
2022/09/20 02:00:43;;;;;;;3.67;1.10;;;;;;;12.41;64.95;98601.47;4438146;32;20093;-82
2022/09/20 02:03:37;;;;;;;4.80;1.50;;;;;;;12.47;64.93;98602.88;4438337;32;20090;-82
2022/09/20 02:06:14;;;;;;;4.55;1.30;;;;;;;12.27;65.35;98606.81;4438243;32;20136;-82
2022/09/20 02:09:13;;;;;;;5.95;1.80;;;;;;;12.03;66.60;98601.31;4425480;32;20223;-82
2022/09/20 02:11:51;;;;;;;;;;;;;;;12.05;66.36;98604.69;4438404;32;20405;-82
2022/09/20 02:14:36;;;;;;;4.95;1.70;;;;;;;12.12;66.15;98595.44;4438278;32;20332;-82
2022/09/20 02:17:12;;;;;;;4.50;1.60;;;;;;;11.72;67.41;98595.28;4438091;32;20445;-82
2022/09/20 02:19:52;;;;;;;4.97;1.70;;;;;;;11.66;67.99;98596.50;4438216;32;20177;-82
2022/09/20 02:22:28;;;;;;;6.82;1.70;;;;;;;11.35;68.70;98601.03;4437951;32;20103;-82
2022/09/20 02:25:24;;;;;;;5.22;1.50;;;;;;;11.26;69.57;98593.69;4425169;32;20084;-82
2022/09/20 02:27:58;;;;;;;4.95;1.50;;;;;;;11.40;69.07;98606.03;4438086;32;20472;-83
2022/09/20 02:31:05;;;;;;;5.32;1.70;;;;;;;11.23;69.59;98603.56;4437903;32;20110;-83
2022/09/20 02:33:39;;;;;;;4.03;1.50;;;;;;;11.44;68.63;98607.53;4486973;32;20435;-83
2022/09/20 02:36:18;;;;;;;8.48;1.75;;;;;;;11.61;67.93;98604.72;4486846;32;20095;-83
2022/09/20 02:38:52;;;;;;;5.18;1.45;;;;;;;11.70;67.67;98602.44;4487102;31;20114;-83
2022/09/20 02:41:17;;;;;;;4.68;1.50;;;;;;;11.69;67.74;98604.25;4487015;32;20142;-84
2022/09/20 02:43:52;;;;;;;6.22;1.73;;;;;;;11.13;69.95;98622.56;4486837;32;20076;-84
2022/09/20 02:46:33;;;;;;;5.28;1.55;;;;;;;11.57;68.51;98620.81;4485629;32;20088;-83
2022/09/20 02:49:07;;;;;;;6.40;1.85;;;;;;;11.53;68.72;98617.53;4485897;32;20115;-83
2022/09/20 02:51:40;;;;;;;5.18;1.70;;;;;;;11.37;69.28;98616.75;4486848;32;20470;-84
2022/09/20 02:54:29;;;;;;;4.43;1.62;;;;;;;11.20;70.04;98610.72;4486880;31;20092;-84
2022/09/20 02:57:01;;;;;;;4.10;1.55;;;;;;;10.96;70.89;98614.81;4486906;31;20124;-83
2022/09/20 02:59:40;;;;;;;6.20;1.50;;;;;;;10.90;71.56;98604.66;4472796;32;20448;-82
2022/09/20 03:02:09;;;;;;;5.45;1.52;;;;;;;10.87;71.61;98616.19;4485564;32;20104;-83
2022/09/20 03:04:43;;;;;;;5.32;1.77;;;;;;;11.15;70.35;98606.66;4486518;32;20459;-82
2022/09/20 03:07:21;;;;;;;5.32;1.50;;;;;;;11.27;69.83;98607.72;4486656;32;20076;-83
2022/09/20 03:09:55;;;;;;;4.30;1.48;;;;;;;11.10;70.35;98606.94;4486643;31;20118;-82
2022/09/20 03:12:39;;;;;;;5.50;1.60;;;;;;;11.15;69.88;98609.31;4485483;32;20104;-83
2022/09/20 03:15:39;;;;;;;6.18;1.80;;;;;;;10.88;71.22;98622.34;4486618;31;20152;-82
2022/09/20 03:18:14;;;;;;;5.12;1.62;;;;;;;10.65;72.23;98613.97;4485167;32;20068;-82
2022/09/20 03:21:08;;;;;;;6.00;1.87;;;;;;;10.53;72.84;98612.06;4486483;31;20088;-82
2022/09/20 03:23:58;;;;;;;7.18;1.90;;;;;;;10.51;72.90;98609.50;4486666;31;20443;-82
2022/09/20 03:26:41;;;;;;;9.30;1.90;;;;;;;10.45;73.23;98604.59;4485150;32;20088;-82
2022/09/20 03:29:15;;;;;;;6.22;1.85;;;;;;;10.32;73.62;98609.69;4485232;32;20151;-82
2022/09/20 03:31:58;;;;;;;7.15;2.08;;;;;;;10.71;72.70;98608.34;4486332;31;20170;-82
2022/09/20 03:34:38;;;;;;;4.72;1.70;;;;;;;10.53;72.90;98604.16;4487221;31;20110;-82
2022/09/20 03:37:22;;;;;;;7.12;2.00;;;;;;;10.85;71.75;98602.25;4488345;31;20098;-82
2022/09/20 03:39:53;;;;;;;6.57;1.80;;;;;;;10.84;71.48;98603.22;4488460;31;20091;-82
2022/09/20 03:42:23;;;;;;;7.28;2.20;;;;;;;10.69;72.23;98610.22;4488300;32;20084;-83
2022/09/20 03:45:11;;;;;;;7.32;1.90;;;;;;;10.81;71.93;98611.28;4488197;31;20452;-83
2022/09/20 03:47:53;;;;;;;6.25;1.90;;;;;;;10.59;72.84;98604.63;4486814;32;20085;-82
2022/09/20 03:50:37;;;;;;;7.80;2.22;;;;;;;10.89;71.09;98603.78;4487298;32;20089;-82
2022/09/20 03:53:29;;;;;;;7.82;1.98;;;;;;;10.94;70.92;98600.88;4488065;31;20096;-82
2022/09/20 03:55:57;;;;;;;6.03;2.15;;;;;;;10.63;72.27;98608.78;4488172;32;20084;-82
2022/09/20 03:58:26;;;;;;;;;;;;;;;10.40;73.79;98604.00;4488383;32;20136;-84
2022/09/20 04:01:13;;;;;;;5.78;2.03;;;;;;;10.19;75.03;98606.84;4486851;32;19979;-84
2022/09/20 04:03:52;;;;;;;7.45;2.15;;;;;;;10.13;74.68;98606.34;4486915;32;20163;-84
2022/09/20 04:06:21;;;;;;;8.15;2.15;;;;;;;10.13;75.59;98609.84;4488084;31;20107;-84
2022/09/20 04:09:16;;;;;;;7.53;2.40;;;;;;;10.57;73.26;98600.41;4488004;31;20080;-84
2022/09/20 04:11:58;;;;;;;6.93;2.22;;;;;;;10.49;73.20;98600.84;4486849;32;20106;-83
2022/09/20 04:15:03;;;;;;;8.38;2.15;;;;;;;10.75;72.37;98603.75;4486836;32;20104;-83
2022/09/20 04:17:49;;;;;;;7.32;2.25;;;;;;;10.23;73.98;98599.63;4423511;32;20468;-83
2022/09/20 04:20:35;;;;;;;8.55;2.50;;;;;;;10.12;75.23;98617.81;4410755;32;20117;-83
2022/09/20 04:23:10;;;;;;;7.72;2.20;;;;;;;10.32;73.93;98609.69;4410721;32;20113;-83
2022/09/20 04:25:41;;;;;;;8.77;2.28;;;;;;;10.29;74.18;98606.34;4410764;32;20543;-82
2022/09/20 04:28:27;;;;;;;8.00;2.53;;;;;;;10.47;73.24;98605.34;4410682;32;20231;-82
2022/09/20 04:31:21;;;;;;;7.60;2.60;;;;;;;10.13;74.22;98622.16;4410960;32;20089;-82
2022/09/20 04:33:49;;;;;;;8.23;2.50;;;;;;;10.64;72.67;98614.87;4423135;32;20578;-83
2022/09/20 04:36:35;;;;;;;8.70;2.58;;;;;;;10.38;72.88;98611.97;4410710;32;20173;-83
2022/09/20 04:39:12;;;;;;;7.12;2.30;;;;;;;10.20;74.04;98618.25;4423596;32;20121;-82
2022/09/20 04:41:56;;;;;;;9.85;2.70;;;;;;;10.48;73.40;98622.00;4410551;32;20453;-82
2022/09/20 04:45:10;;;;;;;7.85;2.80;;;;;;;10.34;74.11;98620.13;4423353;32;20082;-82
2022/09/20 04:47:54;;;;;;;6.90;2.12;;;;;;;10.61;72.72;98625.62;4413310;32;20195;-82
2022/09/20 04:50:47;;;;;;;8.75;2.67;;;;;;;10.83;71.32;98627.84;4423791;32;20198;-82
2022/09/20 04:53:33;;;;;;;6.93;2.37;;;;;;;10.59;72.41;98638.03;4423791;32;20097;-82
2022/09/20 04:56:20;;;;;;;6.43;2.15;;;;;;;10.56;72.35;98635.56;4487742;31;20522;-82
2022/09/20 04:58:48;;;;;;;8.20;2.67;;;;;;;10.88;71.31;98632.88;4486674;32;20120;-83
2022/09/20 05:01:54;;;;;;;7.80;2.22;;;;;;;10.81;71.39;98632.38;4487686;31;20171;-83
2022/09/20 05:04:39;;;;;;;7.57;2.10;;;;;;;10.82;71.83;98634.91;4438424;32;20085;-83
2022/09/20 05:07:19;;;;;;;7.20;2.25;;;;;;;11.07;70.35;98633.50;4425890;32;20192;-83
2022/09/20 05:10:03;;;;;;;7.57;2.40;;;;;;;11.19;69.75;98627.47;4438580;32;20125;-81
2022/09/20 05:13:04;;;;;;;7.68;2.22;;;;;;;10.95;70.68;98637.69;4439018;32;20132;-81
2022/09/20 05:15:51;;;;;;;8.65;2.17;;;;;;;10.97;70.92;98627.91;4438669;32;20117;-81
2022/09/20 05:18:47;;;;;;;7.22;2.33;;;;;;;11.05;70.57;98622.19;4425709;32;20506;-82
2022/09/20 05:21:41;;;;;;;6.93;2.20;;;;;;;11.09;70.37;98621.06;4438561;32;20139;-82
2022/09/20 05:24:12;;;;;;;6.20;1.92;;;;;;;11.33;69.71;98629.28;4438793;32;20452;-82
2022/09/20 05:27:06;;;;;;;7.95;1.98;;;;;;;11.38;68.98;98636.94;4438463;32;20384;-82
2022/09/20 05:29:59;;;;;;;7.37;2.20;;;;;;;11.75;67.61;98645.25;4438743;32;20136;-83
2022/09/20 05:32:35;;;;;;;7.35;1.95;;;;;;;11.78;67.12;98645.91;4435282;32;20112;-83
2022/09/20 05:35:33;;;;;;;9.10;1.92;;;;;;;11.70;67.96;98645.50;4418206;32;20117;-83
2022/09/20 05:38:18;;;;;;;6.93;1.95;;;;;;;11.62;68.09;98645.13;4419279;32;20124;-83
2022/09/20 05:41:02;;;;;;;6.80;1.77;;;;;;;12.00;66.37;98642.78;4433156;31;20088;-83
2022/09/20 05:43:32;;;;;;;5.53;2.03;;;;;;;11.97;66.48;98650.91;4493416;31;20120;-82
2022/09/20 05:46:35;;;;;;;6.10;1.95;;;;;;;12.00;66.60;98658.63;4468705;31;20441;-82
2022/09/20 05:49:15;;;;;;;7.12;2.20;;;;;;;11.96;66.54;98661.56;4493282;31;20447;-82
2022/09/20 05:51:46;;;;;;;7.10;1.83;;;;;;;12.03;66.86;98667.31;4478957;31;20095;-82
2022/09/20 05:54:34;;;;;;;6.57;1.90;;;;;;;12.25;65.63;98667.66;4499097;31;20080;-81
2022/09/20 05:57:21;;;;;;;6.43;1.87;;;;;;;12.49;65.03;98659.94;4502612;31;20110;-81
2022/09/20 05:59:58;;;;;;;5.82;1.77;;;;;;;12.04;66.25;98675.13;4503205;31;20087;-82
2022/09/20 06:02:24;;;;;;;7.00;1.83;;;;;;;12.44;65.38;98650.63;4488743;31;20088;-83
2022/09/20 06:05:15;;;;;;;6.70;1.90;;;;;;;12.84;63.67;98663.88;4503016;31;20156;-81
2022/09/20 06:08:03;;;;;;;6.22;1.80;;;;;;;12.42;65.64;98665.72;4488825;31;20489;-82
2022/09/20 06:10:56;;;;;;;4.87;1.80;;;;;;;12.79;63.96;98656.28;4488689;31;20435;-82
2022/09/20 06:13:30;;;;;;;6.57;1.95;;;;;;;13.02;63.04;98660.03;4502930;31;20135;-82
2022/09/20 06:16:03;;;;;;;5.40;1.70;;;;;;;12.97;63.19;98655.03;4502710;31;20131;-80
2022/09/20 06:18:35;;;;;;;5.75;1.65;;;;;;;12.44;64.71;98663.84;4488583;31;20364;-79
2022/09/20 06:21:15;;;;;;;6.15;1.50;;;;;;;12.49;64.92;98664.41;4502961;31;20416;-81
2022/09/20 06:23:41;;;;;;;5.00;1.80;;;;;;;13.15;62.67;98667.97;4502952;31;20136;-83
2022/09/20 06:26:19;;;;;;;5.15;1.50;;;;;;;12.67;64.10;98665.84;4488418;31;20534;-84
2022/09/20 06:28:46;;;;;;;;;;;;;;;12.83;63.59;98660.41;4488801;31;20122;-83
2022/09/20 06:31:11;;;;;;;10.20;2.05;;;;;;;13.30;62.05;98666.16;4488616;31;20093;-85
2022/09/20 06:33:45;;;;;;;5.28;1.60;;;;;;;12.93;62.65;98668.59;4502530;31;20096;-83
2022/09/20 06:41:52;;;;;;;8.98;2.00;;;;;;;12.87;63.53;98674.28;4502733;31;20211;-83
2022/09/20 06:44:17;;;;;;;5.20;1.98;;;;;;;13.18;62.39;98686.31;4488385;31;20466;-83
2022/09/20 06:46:43;;;;;;;5.12;1.80;;;;;;;13.47;61.24;98675.59;4502526;31;20092;-82
2022/09/20 06:49:08;;;;;;;7.47;2.08;;;;;;;13.41;61.72;98687.44;4502385;31;20149;-84
2022/09/20 06:51:36;;;;;;;5.97;1.90;;;;;;;13.48;61.05;98693.16;4502586;31;20107;-84
2022/09/20 06:54:01;;;;;;;6.47;2.28;;;;;;;14.02;60.08;98687.63;4502640;31;20461;-83
2022/09/20 06:56:29;;;;;;;6.60;1.90;;;;;;;14.13;59.17;98692.19;4488254;31;20127;-82
2022/09/20 06:58:54;;;;;;;4.75;1.85;;;;;;;14.06;58.97;98697.06;4502632;31;20100;-82
2022/09/20 07:01:20;;;;;;;6.72;2.08;;;;;;;13.98;59.40;98696.75;4502409;31;20137;-82
2022/09/20 07:03:46;;;;;;;5.72;1.92;;;;;;;14.22;59.21;98690.69;4502452;31;20428;-81
2022/09/20 07:06:11;;;;;;;6.20;2.03;;;;;;;14.72;57.92;98689.72;4502415;31;20088;-82
2022/09/20 07:08:37;;;;;;;5.97;1.92;;;;;;;14.58;56.83;98683.72;4486944;31;20380;-82
2022/09/20 07:11:09;;;;;;;6.87;2.10;;;;;;;14.45;57.40;98692.53;4502452;31;20096;-83
2022/09/20 07:13:35;;;;;;;6.80;2.42;;;;;;;14.03;58.24;98699.09;4486272;31;20151;-81
2022/09/20 07:16:04;;;;;;;7.93;2.33;;;;;;;13.55;60.14;98716.44;4480021;32;20219;-83
2022/09/20 07:18:31;;;;;;;5.07;1.87;;;;;;;14.17;58.60;98714.84;4492767;31;20091;-82
2022/09/20 07:20:59;;;;;;;5.30;2.05;;;;;;;14.11;58.71;98717.94;4495182;31;20562;-82
2022/09/20 07:23:25;;;;;;;7.95;2.42;;;;;;;14.23;58.98;98711.75;4472125;32;20107;-83
2022/09/20 07:25:52;;;;;;;4.93;1.83;;;;;;;14.29;58.34;98714.00;4472231;32;20389;-82
2022/09/20 07:28:19;;;;;;;7.22;2.15;;;;;;;14.76;56.93;98716.88;4486685;32;20110;-82
2022/09/20 07:30:48;;;;;;;5.45;2.00;;;;;;;14.44;57.27;98737.69;4486573;32;20084;-82
2022/09/20 07:33:19;;;;;;;7.57;2.30;;;;;;;14.65;57.14;98722.09;4486492;32;20149;-81
2022/09/20 07:35:45;;;;;;;8.32;2.10;;;;;;;15.05;55.56;98724.50;4472914;32;20092;-82
2022/09/20 07:38:11;;;;;;;5.45;1.95;;;;;;;15.31;55.46;98717.22;4486437;32;20143;-82
2022/09/20 07:40:37;;;;;;;5.95;1.65;;;;;;;15.73;53.97;98730.88;4486491;32;20426;-81
2022/09/20 07:43:03;;;;;;;6.93;2.08;;;;;;;15.94;53.46;98733.72;4486038;32;20120;-82
2022/09/20 07:45:29;;;;;;;7.97;2.40;;;;;;;16.09;53.05;98729.03;4471748;32;20100;-82
2022/09/20 07:47:57;;;;;;;6.57;2.12;;;;;;;15.75;53.39;98728.97;4472027;32;20104;-82
2022/09/20 07:50:22;;;;;;;6.25;2.00;;;;;;;15.56;54.29;98731.31;4471864;32;20102;-82
2022/09/20 07:52:47;;;;;;;7.55;2.65;;;;;;;15.49;53.82;98728.25;4471661;32;20100;-83
2022/09/20 07:55:13;;;;;;;8.50;2.40;;;;;;;15.56;53.27;98729.47;4486030;32;20149;-80
2022/09/20 07:57:38;;;;;;;5.62;2.00;;;;;;;15.30;54.47;98724.34;4486051;32;20088;-81
2022/09/20 08:00:06;;;;;;;5.80;1.67;;;;;;;15.38;54.48;98722.94;4485970;32;20076;-82
2022/09/20 08:02:31;;;;;;;;;;;;;;;15.42;54.71;98724.38;4457706;32;45398;-81
2022/09/20 08:04:57;;;;;;;5.07;1.80;;;;;;;15.51;54.65;98711.25;4471505;32;19984;-81
2022/09/20 08:07:23;;;;;;;5.62;1.98;;;;;;;15.44;53.83;98730.44;4485682;32;20135;-82
2022/09/20 08:09:49;;;;;;;6.93;1.90;;;;;;;15.14;54.68;98722.00;4471556;32;20405;-82
2022/09/20 08:12:14;;;;;;;5.87;1.85;;;;;;;15.05;54.54;98732.44;4485777;32;20227;-82
2022/09/20 08:14:40;;;;;;;6.62;1.65;;;;;;;15.14;53.79;98726.44;4485740;32;20352;-82
2022/09/20 08:17:05;;;;;;;5.35;1.77;;;;;;;15.38;53.45;98728.25;4485524;32;20093;-82
2022/09/20 08:19:30;;;;;;;5.87;1.73;;;;;;;15.50;53.94;98730.78;4485870;32;20226;-83
2022/09/20 08:21:56;;;;;;;5.95;1.62;;;;;;;15.23;54.30;98732.88;4487659;32;20114;-82
2022/09/20 08:24:21;;;;;;;5.37;1.40;;;;;;;15.66;51.71;98727.81;4487863;32;20107;-83
2022/09/20 08:26:50;;;;;;;6.85;1.83;;;;;;;15.17;53.25;98734.19;4487766;32;20084;-81
2022/09/20 08:29:16;;;;;;;5.10;1.52;;;;;;;15.12;52.99;98734.53;4474042;32;20112;-83
2022/09/20 08:31:42;;;;;;;3.85;1.40;;;;;;;14.88;53.13;98728.37;4496501;31;20102;-83
2022/09/20 08:34:09;;;;;;;5.90;1.58;;;;;;;15.14;53.35;98731.75;4489184;31;20112;-83
2022/09/20 08:36:37;;;;;;;4.97;1.65;;;;;;;15.39;52.87;98733.41;4489262;31;20131;-84
2022/09/20 08:39:04;;;;;;;6.75;1.98;;;;;;;15.13;53.37;98732.72;4500783;31;20179;-79
2022/09/20 08:41:35;;;;;;;5.05;1.73;;;;;;;15.03;53.36;98731.72;4475416;32;20081;-81
2022/09/20 08:44:10;;;;;;;3.90;1.50;;;;;;;14.75;53.91;98741.66;4500573;31;20092;-83
2022/09/20 08:46:38;;;;;;;6.53;1.98;;;;;;;14.73;54.65;98735.63;4493517;31;20137;-81
2022/09/20 08:49:06;;;;;;;5.20;1.77;;;;;;;14.85;54.47;98747.16;4486131;32;20084;-82
2022/09/20 08:51:36;;;;;;;5.82;1.67;;;;;;;14.32;55.34;98737.63;4486339;32;20128;-80
2022/09/20 08:54:03;;;;;;;5.65;1.70;;;;;;;14.57;55.38;98741.22;4486606;31;20755;-81
2022/09/20 08:56:35;;;;;;;4.47;1.80;;;;;;;14.96;54.41;98741.91;4475589;32;20156;-81
2022/09/20 08:59:00;;;;;;;5.05;1.60;;;;;;;14.73;54.67;98740.94;4502931;31;20497;-82
2022/09/20 09:01:28;;;;;;;3.35;1.23;;;;;;;14.53;55.05;98745.00;4497352;31;20092;-81
2022/09/20 09:04:37;;;;;;;3.62;1.50;;;;;;;15.01;54.65;98741.56;4496123;31;20438;-81
2022/09/20 09:07:03;;;;;;;4.03;1.40;;;;;;;14.88;54.08;98723.91;4408003;32;20102;-82
2022/09/20 09:09:29;;;;;;;5.12;1.80;;;;;;;14.97;53.93;98729.50;4406634;32;20164;-80
2022/09/20 09:11:56;;;;;;;7.28;2.30;;;;;;;15.21;53.15;98722.38;4392200;32;20176;-80
2022/09/20 09:17:10;;;;;;;5.43;1.70;;;;;;;15.42;52.81;98732.34;4420047;32;20484;-83
2022/09/20 09:19:56;;;;;;;4.78;1.70;;;;;;;15.09;53.67;98731.25;4423176;32;20177;-83
2022/09/20 09:22:34;;;;;;;5.35;1.60;;;;;;;15.53;52.44;98729.75;4423184;32;20196;-82
2022/09/20 09:25:20;;;;;;;4.95;1.80;;;;;;;15.47;52.33;98731.03;4423194;32;20312;-83
2022/09/20 09:27:52;;;;;;;4.20;1.60;;;;;;;15.77;51.63;98737.66;4410209;32;20651;-82
2022/09/20 09:30:27;;;;;;;4.10;1.67;;;;;;;15.41;52.63;98728.81;4407717;32;20117;-84
2022/09/20 09:33:27;;;;;;;4.78;1.58;;;;;;;15.55;51.44;98725.16;4407189;32;20136;-83
2022/09/20 09:36:03;;;;;;;4.65;1.20;;;;;;;15.16;53.23;98724.50;4395245;32;20379;-83
2022/09/20 09:38:35;;;;;;;6.28;1.50;;;;;;;15.19;52.84;98712.84;4407689;32;20094;-83
2022/09/20 09:41:04;;;;;;;5.12;1.40;;;;;;;15.17;53.81;98718.25;4449952;32;20167;-83
2022/09/20 09:43:36;;;;;;;5.75;1.65;;;;;;;15.77;51.41;98710.25;4472493;32;20667;-83
2022/09/20 09:46:22;;;;;;;7.70;1.80;;;;;;;15.90;51.17;98711.00;4473168;32;20124;-83
2022/09/20 09:49:16;;;;;;;5.32;1.67;;;;;;;15.22;53.36;98720.56;4487220;32;20096;-83
2022/09/20 09:52:00;;;;;;;5.93;1.50;;;;;;;15.75;51.69;98715.69;4467418;32;20452;-82
2022/09/20 09:54:28;;;;;;;5.95;1.70;;;;;;;15.61;51.96;98716.72;4487264;32;20102;-82
2022/09/20 09:57:19;;;;;;;4.35;1.80;;;;;;;15.58;52.23;98718.75;4473041;32;20108;-82
2022/09/20 09:59:54;;;;;;;5.72;1.77;;;;;;;15.73;51.96;98709.66;4476265;32;20117;-83
2022/09/20 10:02:57;;;;;;;4.15;1.58;;;;;;;16.06;51.23;98715.97;4487595;32;20092;-83
2022/09/20 10:05:34;;;;;;;3.65;1.30;;;;;;;15.79;52.03;98713.63;4487081;32;20176;-83
2022/09/20 10:08:18;;;;;;;5.82;1.73;;;;;;;16.02;51.38;98718.00;4487243;32;20096;-83
2022/09/20 10:10:52;;;;;;;6.55;1.58;;;;;;;16.43;50.95;98711.22;4487201;32;20140;-83
2022/09/20 10:13:26;;;;;;;6.87;1.48;;;;;;;16.65;49.87;98713.00;4487220;32;20148;-83
2022/09/20 10:16:03;;;;;;;2.75;1.30;;;;;;;16.47;49.40;98709.16;4473107;32;20100;-83
2022/09/20 10:18:58;;;;;;;3.92;1.50;;;;;;;16.38;49.23;98712.56;4487225;32;20088;-83
2022/09/20 10:21:47;;;;;;;3.90;1.50;;;;;;;16.02;49.68;98714.50;4458666;32;20168;-83
2022/09/20 10:24:36;;;;;;;5.55;1.50;;;;;;;16.30;49.90;98710.50;4487310;32;20194;-83
2022/09/20 10:27:22;;;;;;;5.47;1.70;;;;;;;16.18;49.96;98714.97;4487110;32;20060;-83
2022/09/20 10:29:57;;;;;;;4.12;1.25;;;;;;;16.20;49.42;98705.06;4472682;32;20101;-83
2022/09/20 10:32:48;;;;;;;3.90;1.60;;;;;;;16.38;49.73;98704.56;4487013;32;20142;-83
2022/09/20 10:35:36;;;;;;;2.30;1.10;;;;;;;16.37;48.82;98713.53;4487068;32;20084;-83
2022/09/20 10:38:33;;;;;;;3.67;1.42;;;;;;;16.60;48.90;98709.88;4486953;32;20119;-83
2022/09/20 10:44:17;;;;;;;5.32;1.60;;;;;;;16.43;49.66;98705.91;4474706;32;20118;-82
2022/09/20 10:47:11;;;;;;;3.65;1.30;;;;;;;16.40;48.29;98702.63;4487002;32;20080;-80
2022/09/20 10:49:59;;;;;;;4.15;1.30;;;;;;;16.66;48.20;98703.22;4472488;32;20084;-80
2022/09/20 10:52:37;;;;;;;4.47;1.52;;;;;;;16.59;48.72;98700.22;4487127;32;20154;-80
2022/09/20 10:55:24;;;;;;;5.60;1.43;;;;;;;16.56;47.25;98704.94;4473022;32;20131;-80
2022/09/20 10:58:02;;;;;;;4.57;1.40;;;;;;;16.44;48.26;98701.44;4486724;32;20423;-80
2022/09/20 11:00:51;;;;;;;3.65;1.33;;;;;;;16.40;49.14;98698.19;4486785;32;20121;-81
2022/09/20 11:03:46;;;;;;;5.65;1.70;;;;;;;16.88;47.82;98703.19;4487119;32;20172;-80
2022/09/20 11:06:25;;;;;;;4.43;1.77;;;;;;;16.78;48.13;98701.38;4479877;32;20088;-81
2022/09/20 11:08:54;;;;;;;4.72;1.70;;;;;;;16.51;49.61;98700.84;4472377;32;20435;-81
2022/09/20 11:11:22;;;;;;;6.40;1.80;;;;;;;16.37;50.08;98703.75;4472633;32;20088;-80
2022/09/20 11:14:10;;;;;;;4.45;1.70;;;;;;;16.54;50.06;98704.22;4472361;32;20456;-81
2022/09/20 11:16:47;;;;;;;5.03;1.60;;;;;;;15.68;52.60;98712.63;4472285;32;20126;-80
2022/09/20 11:19:30;;;;;;;4.75;1.27;;;;;;;16.11;51.75;98709.31;4486554;32;20100;-80
2022/09/20 11:22:11;;;;;;;3.62;1.40;;;;;;;16.22;51.01;98708.44;4472896;32;20072;-81
2022/09/20 11:24:38;;;;;;;6.30;1.60;;;;;;;16.39;50.43;98703.63;4472094;32;20108;-80
2022/09/20 11:27:13;;;;;;;5.82;1.52;;;;;;;16.23;52.04;98710.16;4486408;32;20115;-81
2022/09/20 11:29:44;;;;;;;4.18;1.70;;;;;;;16.40;52.29;98706.16;4472233;32;20399;-81
2022/09/20 11:32:27;;;;;;;4.80;1.73;;;;;;;16.11;53.36;98706.66;4486414;32;20080;-80
2022/09/20 11:34:56;;;;;;;7.72;1.70;;;;;;;15.93;53.57;98708.09;4472288;32;20164;-80
2022/09/20 11:37:26;;;;;;;6.53;1.50;;;;;;;16.17;52.91;98699.16;4486261;32;20111;-80
2022/09/20 11:39:55;;;;;;;5.82;1.50;;;;;;;16.19;52.48;98694.59;4472169;32;20104;-81
2022/09/20 11:42:28;;;;;;;5.72;1.67;;;;;;;16.05;52.56;98696.53;4486257;32;20100;-80
2022/09/20 11:44:53;;;;;;;6.20;1.58;;;;;;;15.64;53.53;98694.38;4471969;32;20177;-80
2022/09/20 11:47:32;;;;;;;3.47;1.40;;;;;;;15.55;52.84;98687.97;4486184;32;20097;-81
2022/09/20 11:50:06;;;;;;;3.65;1.40;;;;;;;16.01;52.01;98683.56;4471927;32;20100;-81
2022/09/20 11:53:04;;;;;;;4.18;1.45;;;;;;;16.09;51.87;98682.03;4485993;32;20370;-81
2022/09/20 11:55:35;;;;;;;3.55;1.37;;;;;;;15.75;52.37;98678.50;4438068;32;20121;-80
2022/09/20 11:58:04;;;;;;;3.33;1.25;;;;;;;16.19;50.85;98674.16;4439106;32;20097;-80
2022/09/20 12:00:33;;;;;;;2.85;1.00;;;;;;;16.35;50.02;98673.78;4439026;32;20111;-80
2022/09/20 12:02:59;;;;;;;3.50;1.30;;;;;;;16.59;48.88;98670.97;4426296;32;20069;-81
2022/09/20 12:05:38;;;;;;;4.43;1.20;;;;;;;16.64;49.42;98666.09;4439076;32;20132;-81
2022/09/20 12:08:19;;;;;;;2.58;1.20;;;;;;;16.55;48.78;98664.19;4439141;32;20316;-80
2022/09/20 12:10:57;;;;;;;2.55;1.00;;;;;;;16.70;48.37;98659.44;4426563;32;20102;-81
2022/09/20 12:13:24;;;;;;;2.50;1.08;;;;;;;16.80;48.17;98660.34;4426486;32;20085;-80
2022/09/20 12:16:04;;;;;;;2.80;0.95;;;;;;;16.69;48.25;98665.75;4426453;32;20109;-80
2022/09/20 12:18:32;;;;;;;2.33;1.00;;;;;;;16.77;48.00;98665.13;4426418;32;20131;-80
2022/09/20 12:21:03;;;;;;;5.03;1.10;;;;;;;17.15;47.55;98666.41;4438952;32;20113;-81
2022/09/20 12:23:39;;;;;;;6.32;1.58;;;;;;;17.09;48.15;98659.78;4426436;32;20082;-81
2022/09/20 12:26:06;;;;;;;3.67;1.00;;;;;;;17.33;46.92;98656.06;4438871;32;20097;-80
2022/09/20 12:28:36;;;;;;;3.72;1.17;;;;;;;17.03;47.89;98655.81;4426163;32;20527;-80
2022/09/20 12:31:31;;;;;;;3.37;1.00;;;;;;;17.14;47.61;98656.75;4438961;32;20212;-81